Time;durP1;ratioP1;P1;durP2;ratioP2;P2;SDS_P1;SDS_P2;PMS_P1;PMS_P2;Temp;Humidity;BMP_temperature;BMP_pressure;BME280_temperature;BME280_humidity;BME280_pressure;Samples;Min_cycle;Max_cycle;Signal;HPM_P1;HPM_P2
2023/02/16 00:00:55;;;;;;;25.23;17.83;;;;;;;;;;5099881;28;20240;-69
2023/02/16 00:03:23;;;;;;;26.23;17.07;;;;;;;;;;5099579;28;20289;-69
2023/02/16 00:05:51;;;;;;;28.17;17.83;;;;;;;;;;5099289;28;20205;-69
2023/02/16 00:08:19;;;;;;;28.37;17.87;;;;;;;;;;5099431;28;20201;-69
2023/02/16 00:13:47;;;;;;;26.37;16.97;;;;;;;;;;5098796;28;20646;-68
2023/02/16 00:16:16;;;;;;;26.97;17.20;;;;;;;;;;5099198;28;20554;-70
2023/02/16 00:18:44;;;;;;;26.03;17.70;;;;;;;;;;5099477;28;20241;-69
2023/02/16 00:21:13;;;;;;;26.43;17.90;;;;;;;;;;5099335;28;20237;-70
2023/02/16 00:23:41;;;;;;;25.70;16.33;;;;;;;;;;5099033;28;20712;-70
2023/02/16 00:26:14;;;;;;;30.50;16.57;;;;;;;;;;5099098;28;20623;-70
2023/02/16 00:28:42;;;;;;;29.03;17.63;;;;;;;;;;5099031;28;20240;-69
2023/02/16 00:31:15;;;;;;;25.17;16.27;;;;;;;;;;5099195;28;20209;-69
2023/02/16 00:33:43;;;;;;;27.67;16.40;;;;;;;;;;5099078;28;20354;-70
2023/02/16 00:36:11;;;;;;;25.57;16.57;;;;;;;;;;5098885;28;20237;-68
2023/02/16 00:38:39;;;;;;;26.40;17.70;;;;;;;;;;5098739;28;20684;-69
2023/02/16 00:41:49;;;;;;;20.93;15.13;;;;;;;;;;5097935;28;20673;-70
2023/02/16 00:44:00;;;;;;;26.73;16.53;;;;;;;;;;5095400;28;20253;-69
2023/02/16 00:46:28;;;;;;;23.53;16.47;;;;;;;;;;5098714;28;20205;-70
2023/02/16 00:48:56;;;;;;;26.07;17.47;;;;;;;;;;5098503;28;20206;-69
2023/02/16 00:51:24;;;;;;;26.43;16.47;;;;;;;;;;5098514;28;20244;-69
2023/02/16 00:53:53;;;;;;;27.30;16.70;;;;;;;;;;5098269;28;20244;-70
2023/02/16 00:56:21;;;;;;;27.63;17.13;;;;;;;;;;5098581;28;20610;-69
2023/02/16 00:58:50;;;;;;;27.03;16.13;;;;;;;;;;5098103;28;20248;-70
2023/02/16 01:01:21;;;;;;;26.70;15.73;;;;;;;;;;5098436;28;20240;-69
2023/02/16 01:03:49;;;;;;;30.10;16.37;;;;;;;;;;5098244;28;20248;-69
2023/02/16 01:11:56;;;;;;;23.97;16.60;;;;;;;;;;5098223;28;20628;-71
2023/02/16 01:14:25;;;;;;;25.77;16.23;;;;;;;;;;5097765;28;20664;-70
2023/02/16 01:16:54;;;;;;;25.50;17.23;;;;;;;;;;5098401;28;20213;-70
2023/02/16 01:19:22;;;;;;;25.10;16.03;;;;;;;;;;5097997;28;20216;-68
2023/02/16 01:21:50;;;;;;;21.43;15.27;;;;;;;;;;5097564;28;20194;-69
2023/02/16 01:24:18;;;;;;;24.10;15.40;;;;;;;;;;5097970;28;20218;-68
2023/02/16 01:26:47;;;;;;;24.67;15.73;;;;;;;;;;5098029;28;20193;-69
2023/02/16 01:29:16;;;;;;;23.50;14.90;;;;;;;;;;5097694;28;20240;-69
2023/02/16 01:31:45;;;;;;;23.87;15.83;;;;;;;;;;5097750;28;20740;-69
2023/02/16 01:34:14;;;;;;;22.67;15.90;;;;;;;;;;5097299;28;20228;-68
2023/02/16 01:36:43;;;;;;;22.30;14.37;;;;;;;;;;5096646;28;20269;-70
2023/02/16 01:39:12;;;;;;;26.53;16.57;;;;;;;;;;5097414;28;20722;-70
2023/02/16 01:41:54;;;;;;;24.93;15.93;;;;;;;;;;5097856;28;20204;-68
2023/02/16 01:44:24;;;;;;;25.67;16.00;;;;;;;;;;5095313;28;21655;-68
2023/02/16 01:46:55;;;;;;;21.87;14.80;;;;;;;;;;5095323;28;20212;-69
2023/02/16 01:49:24;;;;;;;25.20;15.83;;;;;;;;;;5093529;28;20247;-69
2023/02/16 01:51:56;;;;;;;24.70;16.57;;;;;;;;;;5096544;28;20201;-70
2023/02/16 01:54:42;;;;;;;24.40;15.37;;;;;;;;;;5102140;28;20695;-70
2023/02/16 01:57:13;;;;;;;25.53;16.13;;;;;;;;;;5099153;28;20201;-70
2023/02/16 02:00:02;;;;;;;25.40;16.97;;;;;;;;;;5101822;28;20205;-69
2023/02/16 02:02:34;;;;;;;20.53;14.77;;;;;;;;;;5099543;28;20194;-68
2023/02/16 02:07:56;;;;;;;23.87;14.37;;;;;;;;;;5099278;28;20655;-67
2023/02/16 02:10:26;;;;;;;22.77;15.67;;;;;;;;;;5101477;28;20201;-68
2023/02/16 02:12:56;;;;;;;23.07;15.00;;;;;;;;;;5101488;28;20221;-68
2023/02/16 02:15:26;;;;;;;23.93;16.33;;;;;;;;;;5101571;28;20563;-68
2023/02/16 02:17:54;;;;;;;26.03;14.90;;;;;;;;;;5101748;28;20205;-68
2023/02/16 02:23:29;;;;;;;23.60;13.73;;;;;;;;;;5101530;28;20209;-67
2023/02/16 02:23:32;;;;;;;22.80;14.73;;;;;;;;;;5101560;28;20226;-67
2023/02/16 02:26:17;;;;;;;23.50;15.00;;;;;;;;;;5101453;28;20570;-67
2023/02/16 02:28:51;;;;;;;26.20;16.27;;;;;;;;;;5101170;28;20209;-68
2023/02/16 02:31:24;;;;;;;21.53;14.70;;;;;;;;;;5101641;28;20237;-67
2023/02/16 02:33:57;;;;;;;21.93;15.03;;;;;;;;;;5101453;28;20240;-68
2023/02/16 02:36:28;;;;;;;25.93;16.30;;;;;;;;;;5100833;28;20236;-67
2023/02/16 02:39:01;;;;;;;27.20;15.70;;;;;;;;;;5101147;28;20209;-67
2023/02/16 02:44:20;;;;;;;22.93;15.40;;;;;;;;;;5100311;28;20221;-68
2023/02/16 02:46:48;;;;;;;22.67;15.13;;;;;;;;;;5101410;28;20291;-68
2023/02/16 02:49:16;;;;;;;25.03;16.00;;;;;;;;;;5100780;28;20292;-69
2023/02/16 02:51:44;;;;;;;24.30;15.07;;;;;;;;;;5101021;28;20661;-69
2023/02/16 03:02:35;;;;;;;27.60;16.37;;;;;;;;;;5100797;28;20221;-68
2023/02/16 03:05:05;;;;;;;24.30;15.53;;;;;;;;;;5099759;28;20208;-68
2023/02/16 03:07:48;;;;;;;25.03;15.70;;;;;;;;;;5100699;28;20601;-69
2023/02/16 03:13:04;;;;;;;23.63;16.10;;;;;;;;;;5100366;28;20229;-69
2023/02/16 03:15:34;;;;;;;26.97;15.73;;;;;;;;;;5100346;28;20233;-70
2023/02/16 03:29:21;;;;;;;24.53;15.37;;;;;;;;;;5099961;28;20328;-69
2023/02/16 03:31:51;;;;;;;24.23;14.53;;;;;;;;;;5096637;28;20265;-68
2023/02/16 03:34:20;;;;;;;24.40;14.97;;;;;;;;;;5100015;28;20270;-68
2023/02/16 03:36:49;;;;;;;27.23;15.83;;;;;;;;;;5100051;28;20262;-68
2023/02/16 03:39:17;;;;;;;24.50;15.30;;;;;;;;;;5099791;28;20668;-69
2023/02/16 03:41:47;;;;;;;20.20;14.60;;;;;;;;;;5100034;28;20198;-68
2023/02/16 03:44:16;;;;;;;20.33;13.93;;;;;;;;;;5099263;28;20214;-69
2023/02/16 03:46:44;;;;;;;24.13;15.73;;;;;;;;;;5095058;28;20309;-69
2023/02/16 03:49:14;;;;;;;23.23;15.33;;;;;;;;;;5100708;28;20228;-69
2023/02/16 03:51:42;;;;;;;29.30;15.67;;;;;;;;;;5097719;28;20629;-69
2023/02/16 03:54:10;;;;;;;19.73;13.83;;;;;;;;;;5100818;28;20222;-69
2023/02/16 03:56:38;;;;;;;22.67;14.40;;;;;;;;;;5100439;28;20221;-69
2023/02/16 03:59:06;;;;;;;23.17;15.27;;;;;;;;;;5099962;28;20236;-69
2023/02/16 04:01:34;;;;;;;23.53;15.53;;;;;;;;;;5100350;28;20194;-69
2023/02/16 04:04:02;;;;;;;23.10;15.87;;;;;;;;;;5098771;28;20259;-69
2023/02/16 04:06:32;;;;;;;29.30;15.37;;;;;;;;;;5098495;28;20707;-70
2023/02/16 04:09:00;;;;;;;25.23;16.47;;;;;;;;;;5098923;28;20229;-69
2023/02/16 04:14:14;;;;;;;27.00;15.37;;;;;;;;;;5096934;28;20667;-69
2023/02/16 04:16:42;;;;;;;25.20;16.47;;;;;;;;;;5099369;28;20244;-70
2023/02/16 04:19:10;;;;;;;24.30;17.00;;;;;;;;;;5099110;28;20217;-69
2023/02/16 04:21:39;;;;;;;26.73;18.27;;;;;;;;;;5099173;28;20572;-69
2023/02/16 04:24:07;;;;;;;25.47;17.20;;;;;;;;;;5098926;28;20253;-70
2023/02/16 04:26:35;;;;;;;28.07;17.03;;;;;;;;;;5099365;28;20319;-70
2023/02/16 04:29:03;;;;;;;23.00;16.43;;;;;;;;;;5098762;28;20233;-70
2023/02/16 04:31:31;;;;;;;24.13;15.73;;;;;;;;;;5099045;28;20205;-70
2023/02/16 04:33:59;;;;;;;24.83;16.27;;;;;;;;;;5098726;28;20229;-69
2023/02/16 04:36:27;;;;;;;26.33;16.23;;;;;;;;;;5098875;28;20201;-70
2023/02/16 04:38:57;;;;;;;25.73;16.90;;;;;;;;;;5099120;28;20233;-70
2023/02/16 04:41:25;;;;;;;28.57;18.37;;;;;;;;;;5098959;28;20244;-70
2023/02/16 04:43:53;;;;;;;27.40;16.40;;;;;;;;;;5098261;28;20264;-70
2023/02/16 04:46:21;;;;;;;27.47;17.77;;;;;;;;;;5098800;28;20209;-70
2023/02/16 04:48:49;;;;;;;30.20;16.33;;;;;;;;;;5098957;28;20201;-70
2023/02/16 04:51:17;;;;;;;25.13;16.47;;;;;;;;;;5098973;28;20208;-70
2023/02/16 04:53:46;;;;;;;25.80;17.13;;;;;;;;;;5098461;28;20758;-70
2023/02/16 04:56:15;;;;;;;27.33;16.47;;;;;;;;;;5098746;28;20231;-70
2023/02/16 04:58:43;;;;;;;25.60;15.43;;;;;;;;;;5098177;28;20206;-69
2023/02/16 05:01:18;;;;;;;24.40;15.80;;;;;;;;;;5098731;28;20292;-69
2023/02/16 05:03:47;;;;;;;22.67;16.37;;;;;;;;;;5098515;28;20225;-68
2023/02/16 05:06:15;;;;;;;28.63;16.67;;;;;;;;;;5098210;28;20289;-67
2023/02/16 05:08:43;;;;;;;26.23;15.67;;;;;;;;;;5098575;28;20208;-67
2023/02/16 05:16:44;;;;;;;27.67;17.37;;;;;;;;;;5098460;28;20446;-68
2023/02/16 05:19:12;;;;;;;24.13;16.93;;;;;;;;;;5098228;28;20483;-69
2023/02/16 05:21:40;;;;;;;24.80;17.10;;;;;;;;;;5098310;28;20206;-69
2023/02/16 05:24:10;;;;;;;27.47;15.80;;;;;;;;;;5097962;28;20495;-71
2023/02/16 05:26:39;;;;;;;25.83;16.03;;;;;;;;;;5098344;28;20201;-69
2023/02/16 05:29:08;;;;;;;23.03;16.37;;;;;;;;;;5096876;28;20205;-70
2023/02/16 05:31:37;;;;;;;26.97;16.07;;;;;;;;;;5098150;28;20444;-70
2023/02/16 05:34:05;;;;;;;26.03;15.57;;;;;;;;;;5098053;28;20497;-72
2023/02/16 05:36:33;;;;;;;26.40;15.37;;;;;;;;;;5097890;28;20497;-70
2023/02/16 05:39:01;;;;;;;25.00;15.67;;;;;;;;;;5098165;28;20477;-70
2023/02/16 05:41:29;;;;;;;26.07;16.50;;;;;;;;;;5097957;28;20444;-70
2023/02/16 05:43:58;;;;;;;27.33;16.93;;;;;;;;;;5097477;28;20466;-70
2023/02/16 05:46:28;;;;;;;25.90;16.83;;;;;;;;;;5097849;28;20876;-70
2023/02/16 05:48:56;;;;;;;27.27;16.47;;;;;;;;;;5097943;28;20475;-70
2023/02/16 05:51:24;;;;;;;28.97;15.77;;;;;;;;;;5097729;28;20447;-70
2023/02/16 05:53:52;;;;;;;32.43;16.90;;;;;;;;;;5097220;28;20451;-70
2023/02/16 05:56:20;;;;;;;25.83;16.37;;;;;;;;;;5096935;28;20986;-70
2023/02/16 05:58:48;;;;;;;26.73;15.63;;;;;;;;;;5096526;28;20428;-70
2023/02/16 06:01:17;;;;;;;26.37;15.07;;;;;;;;;;5096581;28;20964;-70
2023/02/16 06:03:46;;;;;;;21.70;14.77;;;;;;;;;;5093965;28;20232;-69
2023/02/16 06:06:15;;;;;;;21.47;15.20;;;;;;;;;;5094739;28;20436;-70
2023/02/16 06:08:43;;;;;;;24.87;15.43;;;;;;;;;;5092661;28;21009;-70
2023/02/16 06:11:34;;;;;;;24.43;15.80;;;;;;;;;;5095978;28;20499;-69
2023/02/16 06:14:00;;;;;;;28.37;15.60;;;;;;;;;;5093753;28;21014;-70
2023/02/16 06:16:28;;;;;;;20.57;14.17;;;;;;;;;;5096054;28;20249;-70
2023/02/16 06:18:58;;;;;;;25.27;15.07;;;;;;;;;;5096945;28;20225;-70
2023/02/16 06:21:26;;;;;;;23.23;15.30;;;;;;;;;;5097248;28;20259;-69
2023/02/16 06:23:54;;;;;;;26.43;16.13;;;;;;;;;;5097155;28;20217;-70
2023/02/16 06:26:22;;;;;;;23.67;15.87;;;;;;;;;;5096967;28;20280;-71
2023/02/16 06:28:50;;;;;;;26.30;16.33;;;;;;;;;;5097104;28;20233;-70
2023/02/16 06:31:19;;;;;;;26.43;16.60;;;;;;;;;;5094865;28;20208;-71
2023/02/16 06:33:47;;;;;;;23.10;14.43;;;;;;;;;;5096878;28;20300;-70
2023/02/16 06:36:17;;;;;;;26.60;16.33;;;;;;;;;;5096667;28;20229;-70
2023/02/16 06:38:46;;;;;;;23.73;16.37;;;;;;;;;;5095829;28;20435;-71
2023/02/16 06:41:29;;;;;;;26.53;15.23;;;;;;;;;;5101099;28;20443;-70
2023/02/16 06:43:59;;;;;;;27.67;15.17;;;;;;;;;;5097222;28;20882;-70
2023/02/16 06:46:27;;;;;;;25.07;14.93;;;;;;;;;;5101222;28;20938;-70
2023/02/16 06:48:55;;;;;;;27.40;15.73;;;;;;;;;;5101170;28;20216;-71
2023/02/16 06:51:25;;;;;;;24.60;16.23;;;;;;;;;;5100847;28;20209;-71
2023/02/16 06:53:53;;;;;;;23.50;15.10;;;;;;;;;;5101061;28;20491;-70
2023/02/16 06:56:21;;;;;;;22.93;14.53;;;;;;;;;;5100846;28;20230;-71
2023/02/16 06:58:50;;;;;;;32.23;17.13;;;;;;;;;;5100657;28;20285;-70
2023/02/16 07:01:21;;;;;;;28.70;16.50;;;;;;;;;;5100900;28;20448;-71
2023/02/16 07:03:50;;;;;;;26.50;16.10;;;;;;;;;;5100455;28;20470;-71
2023/02/16 07:06:18;;;;;;;27.27;15.27;;;;;;;;;;5100627;28;20467;-71
2023/02/16 07:08:47;;;;;;;26.67;16.50;;;;;;;;;;5100489;28;20212;-71
2023/02/16 07:11:16;;;;;;;30.13;18.90;;;;;;;;;;5100678;28;20836;-70
2023/02/16 07:13:44;;;;;;;30.63;19.47;;;;;;;;;;5100082;28;20229;-70
2023/02/16 07:16:13;;;;;;;34.03;19.27;;;;;;;;;;5100543;28;20483;-70
2023/02/16 07:18:41;;;;;;;34.23;19.10;;;;;;;;;;5100741;28;20444;-70
2023/02/16 07:21:11;;;;;;;28.30;18.33;;;;;;;;;;5100146;28;20513;-70
2023/02/16 07:23:39;;;;;;;28.80;17.17;;;;;;;;;;5100449;28;20498;-70
2023/02/16 07:26:09;;;;;;;27.03;16.07;;;;;;;;;;5100720;28;20530;-70
2023/02/16 07:28:37;;;;;;;31.70;18.43;;;;;;;;;;5099985;28;20477;-71
2023/02/16 07:31:06;;;;;;;34.00;18.13;;;;;;;;;;5100390;28;20489;-70
2023/02/16 07:33:36;;;;;;;28.47;18.37;;;;;;;;;;5100143;28;20467;-70
2023/02/16 07:36:04;;;;;;;31.93;19.10;;;;;;;;;;5099501;28;20489;-70
2023/02/16 07:38:32;;;;;;;29.57;17.90;;;;;;;;;;5099887;28;20533;-70
2023/02/16 07:41:00;;;;;;;32.20;18.27;;;;;;;;;;5099869;28;20440;-70
2023/02/16 07:43:30;;;;;;;27.30;16.73;;;;;;;;;;5099232;28;20475;-71
2023/02/16 07:45:58;;;;;;;32.87;19.20;;;;;;;;;;5099778;28;20439;-70
2023/02/16 07:48:27;;;;;;;25.83;16.03;;;;;;;;;;5099763;28;20432;-70
2023/02/16 07:50:55;;;;;;;32.87;17.63;;;;;;;;;;5098823;28;20287;-70
2023/02/16 07:53:23;;;;;;;33.90;17.00;;;;;;;;;;5099167;28;20692;-71
2023/02/16 07:55:51;;;;;;;26.13;16.43;;;;;;;;;;5099372;28;20304;-71
2023/02/16 07:58:27;;;;;;;28.57;17.10;;;;;;;;;;5093010;28;20205;-67
2023/02/16 08:00:57;;;;;;;29.93;16.60;;;;;;;;;;5097521;28;20209;-69
2023/02/16 08:03:25;;;;;;;30.03;17.23;;;;;;;;;;5099662;28;20228;-69
2023/02/16 08:05:53;;;;;;;44.77;26.07;;;;;;;;;;5087333;28;20248;-69
2023/02/16 08:08:21;;;;;;;33.63;18.80;;;;;;;;;;5097207;28;20208;-70
2023/02/16 08:10:49;;;;;;;29.73;17.47;;;;;;;;;;5099291;28;20251;-74
2023/02/16 08:13:17;;;;;;;28.73;16.90;;;;;;;;;;5099253;28;20230;-74
2023/02/16 08:15:45;;;;;;;31.17;17.90;;;;;;;;;;5099478;28;20209;-75
2023/02/16 08:18:15;;;;;;;29.77;19.30;;;;;;;;;;5099562;28;20213;-74
2023/02/16 08:20:43;;;;;;;36.10;17.60;;;;;;;;;;5099188;28;20211;-75
2023/02/16 08:23:30;;;;;;;31.77;17.57;;;;;;;;;;5099271;28;20308;-74
2023/02/16 08:25:58;;;;;;;34.23;18.60;;;;;;;;;;5091430;28;20205;-74
2023/02/16 08:28:28;;;;;;;32.40;17.50;;;;;;;;;;5098424;28;20587;-75
2023/02/16 08:30:56;;;;;;;30.43;17.43;;;;;;;;;;5098799;28;20197;-75
2023/02/16 08:33:25;;;;;;;33.63;17.70;;;;;;;;;;5098320;28;20641;-74
2023/02/16 08:35:53;;;;;;;29.80;16.23;;;;;;;;;;5093536;28;20288;-74
2023/02/16 08:38:21;;;;;;;27.43;17.07;;;;;;;;;;5093785;28;20222;-73
2023/02/16 08:40:50;;;;;;;30.50;17.57;;;;;;;;;;5088393;28;20199;-73
2023/02/16 08:43:18;;;;;;;30.10;16.57;;;;;;;;;;5098019;28;20561;-74
2023/02/16 08:45:46;;;;;;;32.93;18.97;;;;;;;;;;5098440;28;20209;-74
2023/02/16 08:48:15;;;;;;;27.20;16.83;;;;;;;;;;5097940;28;20208;-74
2023/02/16 08:50:52;;;;;;;24.97;16.70;;;;;;;;;;5098502;28;20269;-75
2023/02/16 08:53:21;;;;;;;26.33;14.33;;;;;;;;;;5091701;28;20226;-75
2023/02/16 08:55:54;;;;;;;24.87;16.60;;;;;;;;;;5095335;28;20212;-74
2023/02/16 08:58:23;;;;;;;27.10;15.97;;;;;;;;;;5098067;28;20229;-74
2023/02/16 09:00:51;;;;;;;25.67;15.30;;;;;;;;;;5098452;28;20209;-75
2023/02/16 09:03:19;;;;;;;27.70;16.77;;;;;;;;;;5093379;28;20222;-74
2023/02/16 09:05:49;;;;;;;26.27;16.23;;;;;;;;;;5097166;28;20227;-74
2023/02/16 09:08:17;;;;;;;27.87;17.13;;;;;;;;;;5098096;28;20281;-74
2023/02/16 09:10:45;;;;;;;24.03;16.33;;;;;;;;;;5098031;28;20237;-74
2023/02/16 09:13:14;;;;;;;22.17;16.10;;;;;;;;;;5097946;28;20255;-74
2023/02/16 09:15:43;;;;;;;24.67;16.50;;;;;;;;;;5097967;28;20208;-75
2023/02/16 09:18:11;;;;;;;27.43;16.43;;;;;;;;;;5097981;28;20225;-74
2023/02/16 09:20:40;;;;;;;35.63;21.27;;;;;;;;;;5090599;28;20210;-74
2023/02/16 09:23:11;;;;;;;29.27;19.00;;;;;;;;;;5092691;28;20287;-74
2023/02/16 09:25:40;;;;;;;27.30;18.17;;;;;;;;;;5097680;28;20255;-74
2023/02/16 09:28:10;;;;;;;33.70;18.23;;;;;;;;;;5097490;28;20618;-74
2023/02/16 09:30:38;;;;;;;26.93;16.70;;;;;;;;;;5098054;28;20236;-74
2023/02/16 09:33:07;;;;;;;25.30;15.97;;;;;;;;;;5098109;28;20278;-74
2023/02/16 09:35:35;;;;;;;27.80;18.43;;;;;;;;;;5097616;28;20209;-76
2023/02/16 09:38:07;;;;;;;31.10;18.13;;;;;;;;;;5094739;28;20276;-76
2023/02/16 09:40:41;;;;;;;25.27;16.77;;;;;;;;;;5097746;28;20205;-76
2023/02/16 09:43:16;;;;;;;27.33;18.63;;;;;;;;;;5097435;28;20300;-77
2023/02/16 09:45:47;;;;;;;31.50;18.03;;;;;;;;;;5097450;28;20209;-76
2023/02/16 09:48:21;;;;;;;31.83;18.30;;;;;;;;;;5098007;28;20201;-77
2023/02/16 09:50:52;;;;;;;24.93;18.13;;;;;;;;;;5097641;28;20236;-77
2023/02/16 09:53:22;;;;;;;29.10;18.47;;;;;;;;;;5097508;28;20247;-76
2023/02/16 09:55:58;;;;;;;29.97;17.53;;;;;;;;;;5087388;28;20578;-76
2023/02/16 09:58:29;;;;;;;23.13;16.67;;;;;;;;;;5097056;28;21113;-77
2023/02/16 10:01:04;;;;;;;28.13;17.30;;;;;;;;;;5097623;28;20249;-75
2023/02/16 10:03:38;;;;;;;26.27;16.67;;;;;;;;;;5097390;28;20596;-75
2023/02/16 10:06:18;;;;;;;26.87;17.20;;;;;;;;;;5097534;28;20232;-76
2023/02/16 10:08:49;;;;;;;26.97;16.90;;;;;;;;;;5097515;28;20201;-75
2023/02/16 10:11:44;;;;;;;23.83;16.13;;;;;;;;;;5094593;28;20244;-75
2023/02/16 10:14:23;;;;;;;25.70;15.80;;;;;;;;;;5087094;28;20588;-75
2023/02/16 10:16:55;;;;;;;29.03;18.37;;;;;;;;;;5101592;28;20204;-76
2023/02/16 10:19:26;;;;;;;24.07;15.73;;;;;;;;;;5101287;28;20239;-75
2023/02/16 10:21:56;;;;;;;40.67;27.80;;;;;;;;;;5101266;28;20217;-73
2023/02/16 10:24:26;;;;;;;71.37;40.23;;;;;;;;;;5101262;28;20225;-73
2023/02/16 10:27:01;;;;;;;27.90;18.90;;;;;;;;;;5101233;28;20202;-73
2023/02/16 10:29:29;;;;;;;26.60;17.20;;;;;;;;;;5090003;28;20193;-73
2023/02/16 10:32:03;;;;;;;37.87;16.17;;;;;;;;;;5101143;28;20571;-73
2023/02/16 10:34:36;;;;;;;27.07;15.20;;;;;;;;;;5100834;28;20228;-72
2023/02/16 10:37:15;;;;;;;26.50;16.63;;;;;;;;;;5096506;28;20247;-73
2023/02/16 10:39:46;;;;;;;35.03;22.40;;;;;;;;;;5099407;28;20239;-74
2023/02/16 10:42:19;;;;;;;30.33;18.03;;;;;;;;;;5102609;28;20209;-76
2023/02/16 10:44:49;;;;;;;23.60;14.50;;;;;;;;;;5102881;28;20193;-73
2023/02/16 10:47:23;;;;;;;20.77;13.63;;;;;;;;;;5103395;28;20224;-75
2023/02/16 10:49:51;;;;;;;20.40;13.67;;;;;;;;;;5101711;28;20251;-75
2023/02/16 10:52:20;;;;;;;22.50;14.07;;;;;;;;;;5103007;28;20247;-76
2023/02/16 10:54:48;;;;;;;21.53;14.17;;;;;;;;;;5103306;28;20197;-76
2023/02/16 10:57:24;;;;;;;20.70;13.93;;;;;;;;;;5102978;28;20201;-76
2023/02/16 10:59:53;;;;;;;20.70;13.13;;;;;;;;;;5101441;28;20262;-76
2023/02/16 11:02:24;;;;;;;19.10;12.30;;;;;;;;;;5102794;28;20205;-76
2023/02/16 11:04:53;;;;;;;19.37;13.50;;;;;;;;;;5100445;28;20247;-76
2023/02/16 11:07:22;;;;;;;20.73;14.70;;;;;;;;;;5101189;28;20243;-76
2023/02/16 11:09:51;;;;;;;21.47;14.50;;;;;;;;;;5103073;28;20224;-76
2023/02/16 11:12:27;;;;;;;18.43;13.30;;;;;;;;;;5102401;28;20202;-76
2023/02/16 11:14:57;;;;;;;17.60;12.53;;;;;;;;;;5101867;28;20250;-76
2023/02/16 11:17:26;;;;;;;17.83;13.43;;;;;;;;;;5102041;28;20251;-76
2023/02/16 11:19:56;;;;;;;21.03;13.30;;;;;;;;;;5102106;28;20209;-76
2023/02/16 11:22:30;;;;;;;23.50;13.67;;;;;;;;;;5097565;28;20225;-75
2023/02/16 11:25:13;;;;;;;21.80;14.20;;;;;;;;;;5101492;28;20205;-76
2023/02/16 11:27:49;;;;;;;19.33;12.07;;;;;;;;;;5101735;28;20227;-72
2023/02/16 11:30:21;;;;;;;17.23;12.27;;;;;;;;;;5101892;28;20208;-72
2023/02/16 11:32:50;;;;;;;20.93;13.27;;;;;;;;;;5099881;28;20277;-71
2023/02/16 11:35:19;;;;;;;15.57;11.77;;;;;;;;;;5099482;28;20206;-72
2023/02/16 11:37:47;;;;;;;19.90;11.63;;;;;;;;;;5101098;28;20233;-73
2023/02/16 11:40:19;;;;;;;19.50;12.77;;;;;;;;;;5100468;28;20722;-71
2023/02/16 11:42:50;;;;;;;17.60;12.70;;;;;;;;;;5099303;28;20241;-72
2023/02/16 11:45:24;;;;;;;20.00;12.47;;;;;;;;;;5102112;28;20250;-72
2023/02/16 11:47:53;;;;;;;21.80;11.50;;;;;;;;;;5100329;28;20240;-72
2023/02/16 11:50:24;;;;;;;15.77;11.60;;;;;;;;;;5101911;28;20198;-72
2023/02/16 11:52:53;;;;;;;17.17;11.97;;;;;;;;;;5101801;28;20271;-73
2023/02/16 11:55:25;;;;;;;15.97;11.37;;;;;;;;;;5101987;28;20201;-72
2023/02/16 11:57:55;;;;;;;14.87;11.67;;;;;;;;;;5101379;28;20198;-73
2023/02/16 12:00:25;;;;;;;16.30;11.73;;;;;;;;;;5098232;28;20208;-73
2023/02/16 12:03:14;;;;;;;16.97;12.17;;;;;;;;;;5101632;28;20217;-72
2023/02/16 12:05:51;;;;;;;16.60;10.97;;;;;;;;;;5093522;28;20202;-72
2023/02/16 12:08:34;;;;;;;13.27;10.70;;;;;;;;;;5101262;28;20202;-72
2023/02/16 12:11:09;;;;;;;15.90;11.23;;;;;;;;;;5100921;28;20302;-74
2023/02/16 12:13:43;;;;;;;16.03;11.70;;;;;;;;;;5099143;28;20247;-74
2023/02/16 12:16:18;;;;;;;14.87;9.57;;;;;;;;;;5099375;28;20260;-75
2023/02/16 12:18:51;;;;;;;18.10;10.77;;;;;;;;;;5099021;28;20308;-73
2023/02/16 12:21:22;;;;;;;13.70;11.10;;;;;;;;;;5097431;28;20223;-73
2023/02/16 12:23:55;;;;;;;16.00;10.70;;;;;;;;;;5096544;28;20230;-74
2023/02/16 12:26:33;;;;;;;12.33;10.40;;;;;;;;;;5098747;28;20221;-71
2023/02/16 12:29:10;;;;;;;14.43;10.83;;;;;;;;;;5097846;28;20194;-73
2023/02/16 12:31:47;;;;;;;14.07;11.33;;;;;;;;;;5098086;28;20201;-73
2023/02/16 12:34:21;;;;;;;14.23;9.63;;;;;;;;;;5096695;28;20244;-77
2023/02/16 12:36:57;;;;;;;14.43;10.87;;;;;;;;;;5095596;28;20581;-77
2023/02/16 12:39:30;;;;;;;15.63;10.93;;;;;;;;;;5098291;28;20692;-77
2023/02/16 12:42:05;;;;;;;16.87;10.90;;;;;;;;;;5098786;28;20202;-76
2023/02/16 12:44:36;;;;;;;14.30;10.60;;;;;;;;;;5092958;28;20256;-77
2023/02/16 12:47:07;;;;;;;14.87;10.40;;;;;;;;;;5098590;28;20288;-75
2023/02/16 12:49:42;;;;;;;13.63;10.43;;;;;;;;;;5098439;28;20208;-73
2023/02/16 12:52:12;;;;;;;14.07;10.27;;;;;;;;;;5098793;28;20248;-76
2023/02/16 12:54:45;;;;;;;12.47;9.40;;;;;;;;;;5098653;28;20229;-75
2023/02/16 12:57:14;;;;;;;13.50;9.77;;;;;;;;;;5098046;28;20202;-76
2023/02/16 12:59:48;;;;;;;15.07;10.40;;;;;;;;;;5097545;28;20317;-75
2023/02/16 13:02:18;;;;;;;13.83;9.67;;;;;;;;;;5098036;28;20202;-76
2023/02/16 13:04:49;;;;;;;18.97;10.00;;;;;;;;;;5096191;28;20259;-76
2023/02/16 13:07:21;;;;;;;11.87;9.23;;;;;;;;;;5097848;28;20212;-76
2023/02/16 13:09:52;;;;;;;13.57;9.63;;;;;;;;;;5097714;28;20209;-75
2023/02/16 13:12:26;;;;;;;12.87;9.17;;;;;;;;;;5094946;28;20202;-76
2023/02/16 13:15:01;;;;;;;14.00;8.83;;;;;;;;;;5097920;28;20259;-77
2023/02/16 13:17:32;;;;;;;14.13;10.73;;;;;;;;;;5096409;28;20203;-67
2023/02/16 13:20:00;;;;;;;14.03;9.83;;;;;;;;;;5097303;28;20256;-69
2023/02/16 13:22:51;;;;;;;15.97;9.63;;;;;;;;;;5098253;28;20243;-70
2023/02/16 13:25:33;;;;;;;20.47;9.90;;;;;;;;;;5091864;28;20212;-65
2023/02/16 13:28:07;;;;;;;14.23;8.00;;;;;;;;;;5097705;28;20562;-66
2023/02/16 13:30:55;;;;;;;9.97;7.13;;;;;;;;;;5097897;28;20567;-71
2023/02/16 13:33:39;;;;;;;14.20;8.00;;;;;;;;;;5097830;28;20268;-71
2023/02/16 13:36:14;;;;;;;13.00;8.43;;;;;;;;;;5097340;28;20628;-71
2023/02/16 13:38:54;;;;;;;12.57;7.50;;;;;;;;;;5055805;28;20229;-70
2023/02/16 13:41:35;;;;;;;17.77;9.73;;;;;;;;;;5055876;28;20198;-69
2023/02/16 13:44:03;;;;;;;16.13;8.00;;;;;;;;;;5055259;28;20219;-69
2023/02/16 13:46:34;;;;;;;12.97;7.33;;;;;;;;;;5056929;28;20199;-70
2023/02/16 13:49:02;;;;;;;21.23;10.20;;;;;;;;;;5056488;28;20195;-70
2023/02/16 13:51:40;;;;;;;11.83;7.73;;;;;;;;;;5056962;28;20210;-71
2023/02/16 13:54:21;;;;;;;18.20;8.27;;;;;;;;;;5056814;28;20230;-70
2023/02/16 13:56:50;;;;;;;12.97;7.47;;;;;;;;;;5056933;28;20294;-70
2023/02/16 13:59:33;;;;;;;11.90;7.30;;;;;;;;;;5056603;28;20725;-71
2023/02/16 14:02:02;;;;;;;19.30;7.83;;;;;;;;;;5054904;28;20574;-71
2023/02/16 14:04:51;;;;;;;17.10;8.23;;;;;;;;;;5056930;28;20273;-71
2023/02/16 14:07:31;;;;;;;14.57;8.03;;;;;;;;;;5054664;28;20260;-71
2023/02/16 14:09:59;;;;;;;13.67;8.00;;;;;;;;;;5055182;28;20190;-70
2023/02/16 14:12:30;;;;;;;15.63;7.97;;;;;;;;;;5056433;28;20667;-70
2023/02/16 14:15:03;;;;;;;12.50;8.00;;;;;;;;;;5054786;28;20194;-70
2023/02/16 14:17:34;;;;;;;11.57;7.13;;;;;;;;;;5056816;28;20199;-70
2023/02/16 14:20:04;;;;;;;14.80;7.63;;;;;;;;;;5056653;28;20222;-70
2023/02/16 14:22:34;;;;;;;11.70;6.90;;;;;;;;;;5057095;28;20199;-68
2023/02/16 14:25:04;;;;;;;11.73;7.43;;;;;;;;;;5056905;28;20203;-70
2023/02/16 14:27:45;;;;;;;20.27;8.07;;;;;;;;;;5056408;28;20222;-72
2023/02/16 14:30:20;;;;;;;19.57;10.13;;;;;;;;;;5056653;28;20564;-72
2023/02/16 14:32:56;;;;;;;13.47;8.87;;;;;;;;;;5055709;28;20596;-72
2023/02/16 14:35:26;;;;;;;15.20;8.80;;;;;;;;;;5055715;28;20226;-71
2023/02/16 14:37:56;;;;;;;15.13;8.53;;;;;;;;;;5082875;28;20724;-71
2023/02/16 14:40:39;;;;;;;15.80;8.03;;;;;;;;;;5095831;28;20217;-72
2023/02/16 14:43:15;;;;;;;11.27;7.87;;;;;;;;;;5092819;28;20218;-71
2023/02/16 14:45:58;;;;;;;16.13;7.67;;;;;;;;;;5092859;28;20213;-70
2023/02/16 14:48:34;;;;;;;15.07;7.80;;;;;;;;;;5052146;28;20259;-71
2023/02/16 14:51:14;;;;;;;12.87;8.50;;;;;;;;;;5095727;28;20690;-69
2023/02/16 14:54:00;;;;;;;18.07;8.43;;;;;;;;;;5094944;28;20280;-69
2023/02/16 14:56:37;;;;;;;13.30;7.87;;;;;;;;;;5077581;28;20231;-71
2023/02/16 14:59:06;;;;;;;11.97;6.87;;;;;;;;;;5095301;28;20228;-71
2023/02/16 15:01:39;;;;;;;15.67;7.40;;;;;;;;;;5092581;28;20227;-69
2023/02/16 15:04:10;;;;;;;11.40;7.23;;;;;;;;;;5085138;28;20218;-69
2023/02/16 15:06:41;;;;;;;13.90;7.87;;;;;;;;;;5100540;28;20201;-68
2023/02/16 15:09:14;;;;;;;28.83;8.50;;;;;;;;;;5100482;28;20269;-70
2023/02/16 15:14:31;;;;;;;16.33;8.53;;;;;;;;;;5099520;28;20221;-70
2023/02/16 15:16:59;;;;;;;13.20;7.87;;;;;;;;;;5100157;28;20209;-70
2023/02/16 15:19:31;;;;;;;13.93;7.80;;;;;;;;;;5093370;28;20208;-70
2023/02/16 15:22:09;;;;;;;16.73;8.47;;;;;;;;;;5100349;28;20254;-65
2023/02/16 15:24:37;;;;;;;17.43;8.23;;;;;;;;;;5099838;28;20233;-69
2023/02/16 15:27:05;;;;;;;17.23;8.03;;;;;;;;;;5094145;28;20221;-66
2023/02/16 15:29:33;;;;;;;14.27;7.73;;;;;;;;;;5100174;28;20202;-70